Time;durP1;ratioP1;P1;durP2;ratioP2;P2;SDS_P1;SDS_P2;PMS_P1;PMS_P2;Temp;Humidity;BMP_temperature;BMP_pressure;BME280_temperature;BME280_humidity;BME280_pressure;Samples;Min_cycle;Max_cycle;Signal;HPM_P1;HPM_P2
2022/11/19 00:02:02;;;;;;;2.20;0.80;;;7.30;99.90;;;10.62;58.91;96699.19;5021878;28;20049;-56
2022/11/19 00:04:30;;;;;;;0.90;0.70;;;7.30;99.90;;;10.59;58.90;96699.59;5021231;28;20201;-57
2022/11/19 00:06:58;;;;;;;1.33;0.90;;;7.30;99.90;;;10.56;58.82;96697.28;5020798;28;20237;-56
2022/11/19 00:09:27;;;;;;;1.50;0.97;;;7.30;99.90;;;10.62;59.00;96705.38;5021533;28;20356;-56
2022/11/19 00:14:41;;;;;;;0.87;0.70;;;7.40;99.90;;;10.71;58.68;96699.94;5021154;28;20052;-56
2022/11/19 00:17:09;;;;;;;1.03;0.70;;;7.50;99.90;;;10.73;58.64;96701.41;5019417;28;20371;-58
2022/11/19 00:19:38;;;;;;;2.17;1.03;;;7.40;99.90;;;10.75;58.49;96699.38;5021583;28;20237;-56
2022/11/19 00:22:06;;;;;;;1.23;0.90;;;7.50;99.90;;;10.77;58.34;96701.88;5023520;28;20049;-57
2022/11/19 00:24:34;;;;;;;2.27;1.17;;;7.50;99.90;;;10.78;58.41;96700.88;5007333;28;20216;-56
2022/11/19 00:27:02;;;;;;;2.63;1.10;;;7.50;99.90;;;10.74;58.30;96704.88;5025306;28;20182;-53
2022/11/19 00:29:30;;;;;;;1.23;0.90;;;7.40;99.90;;;10.75;58.66;96698.56;5023985;28;20053;-57
2022/11/19 00:31:58;;;;;;;1.53;1.30;;;7.40;99.90;;;10.74;58.29;96697.75;5025224;28;20340;-57
2022/11/19 00:34:26;;;;;;;1.60;1.20;;;7.40;99.90;;;10.68;58.24;96701.13;5025487;28;20357;-56
2022/11/19 00:36:55;;;;;;;1.67;1.20;;;7.40;99.90;;;10.66;58.32;96697.00;5025083;28;20063;-57
2022/11/19 00:39:23;;;;;;;2.13;1.27;;;7.40;99.90;;;10.64;58.63;96694.53;5024093;28;20141;-57
2022/11/19 00:41:51;;;;;;;1.10;0.90;;;7.40;99.90;;;10.67;58.43;96694.16;5023831;28;20208;-57
2022/11/19 00:44:19;;;;;;;2.57;1.10;;;7.50;99.90;;;10.69;58.25;96681.50;5024407;28;20046;-54
2022/11/19 00:46:47;;;;;;;1.73;1.07;;;7.50;99.90;;;10.69;58.18;96681.50;5025121;28;20348;-57
2022/11/19 00:49:15;;;;;;;2.73;1.00;;;7.50;99.90;;;10.63;58.11;96683.06;5024926;28;20434;-56
2022/11/19 00:51:43;;;;;;;2.10;1.10;;;7.40;99.90;;;10.64;58.14;96681.22;5007459;28;20057;-55
2022/11/19 00:54:12;;;;;;;2.13;1.23;;;7.40;99.90;;;10.68;58.43;96679.00;5023204;28;20052;-56
2022/11/19 00:56:40;;;;;;;2.47;1.00;;;7.50;99.90;;;10.69;58.04;96681.50;5024475;28;20045;-56
2022/11/19 00:59:08;;;;;;;1.03;0.83;;;7.40;99.90;;;10.67;58.06;96682.69;5023188;28;20072;-57
2022/11/19 01:01:36;;;;;;;1.33;0.90;;;7.40;99.90;;;10.59;58.26;96689.75;5024879;28;20239;-57
2022/11/19 01:04:05;;;;;;;1.80;1.20;;;7.40;99.90;;;10.55;58.48;96690.31;5024211;28;20068;-55
2022/11/19 01:06:33;;;;;;;3.30;1.30;;;7.30;99.90;;;10.59;58.11;96695.09;5024955;28;20058;-57
2022/11/19 01:09:01;;;;;;;1.40;1.03;;;7.30;99.90;;;10.61;58.32;96700.22;5024591;28;20056;-56
2022/11/19 01:11:34;;;;;;;3.47;1.53;;;7.30;99.90;;;10.62;58.06;96693.88;5024163;28;20252;-55
2022/11/19 01:14:04;;;;;;;1.80;1.00;;;7.30;99.90;;;10.60;58.07;96704.75;5022873;28;20045;-57
2022/11/19 01:16:39;;;;;;;1.83;1.07;;;7.30;99.90;;;10.60;58.34;96704.75;5023127;28;20243;-57
2022/11/19 01:19:10;;;;;;;1.60;1.10;;;7.20;99.90;;;10.60;58.52;96701.22;5024756;28;20053;-57
2022/11/19 01:21:38;;;;;;;1.73;1.20;;;7.20;99.90;;;10.61;58.27;96708.22;5023983;28;20042;-56
2022/11/19 01:24:06;;;;;;;1.17;1.00;;;7.30;99.90;;;10.61;58.11;96705.56;5023804;28;20056;-56
2022/11/19 01:26:35;;;;;;;1.17;1.00;;;7.30;99.90;;;10.60;58.34;96703.88;5039258;28;20054;-57
2022/11/19 01:29:03;;;;;;;2.10;0.80;;;7.30;99.90;;;10.58;58.11;96704.06;5023979;28;20056;-57
2022/11/19 01:31:31;;;;;;;1.87;1.17;;;7.30;99.90;;;10.60;58.26;96709.22;5024165;28;20054;-55
2022/11/19 01:33:59;;;;;;;1.57;1.10;;;7.20;99.90;;;10.60;57.96;96701.22;5023070;28;20037;-56
2022/11/19 01:36:29;;;;;;;1.40;1.00;;;7.20;99.90;;;10.58;58.11;96703.25;5023914;28;20050;-58
2022/11/19 01:38:57;;;;;;;1.90;1.20;;;7.20;99.90;;;10.59;58.41;96704.91;5024204;28;20225;-56
2022/11/19 01:41:31;;;;;;;1.20;0.80;;;7.20;99.90;;;10.52;58.40;96696.81;5023122;28;20054;-57
2022/11/19 01:44:07;;;;;;;2.10;0.80;;;7.10;99.90;;;10.55;57.89;96700.97;5022187;28;20259;-57
2022/11/19 01:46:37;;;;;;;2.23;1.20;;;7.20;99.90;;;10.55;58.09;96700.97;5022762;28;20080;-55
2022/11/19 01:49:17;;;;;;;3.27;1.10;;;7.20;99.90;;;10.53;58.19;96705.66;5006428;28;20050;-56
2022/11/19 01:51:57;;;;;;;1.57;0.90;;;7.20;99.90;;;10.42;58.08;96705.09;5022429;28;20054;-56
2022/11/19 01:54:37;;;;;;;1.57;0.90;;;7.10;99.90;;;10.43;58.16;96709.41;5023464;28;20045;-57
2022/11/19 01:57:10;;;;;;;1.20;1.00;;;7.10;99.90;;;10.41;58.33;96700.78;5023795;28;20060;-57
2022/11/19 01:59:40;;;;;;;2.67;1.40;;;7.10;99.90;;;10.39;58.31;96702.81;5022574;28;20046;-56
2022/11/19 02:02:08;;;;;;;1.40;1.10;;;7.10;99.90;;;10.43;58.26;96709.41;5022273;28;20048;-55
2022/11/19 02:04:38;;;;;;;1.47;1.07;;;7.10;99.90;;;10.43;58.54;96706.75;5020193;28;20056;-57
2022/11/19 02:07:08;;;;;;;1.30;1.00;;;7.10;99.90;;;10.46;58.43;96710.06;5021379;28;20064;-56
2022/11/19 02:09:38;;;;;;;1.43;0.97;;;7.10;99.90;;;10.50;58.15;96701.50;5022121;28;20054;-53
2022/11/19 02:12:45;;;;;;;1.97;1.20;;;7.10;99.90;;;10.51;58.11;96707.69;5022054;28;20268;-54
2022/11/19 02:15:41;;;;;;;1.53;0.90;;;7.20;99.90;;;10.52;58.04;96707.47;5037876;28;20340;-57
2022/11/19 02:19:11;;;;;;;1.20;0.97;;;7.20;99.90;;;10.45;58.22;96703.91;5021187;28;20049;-55
2022/11/19 02:22:00;;;;;;;1.57;1.13;;;7.10;99.90;;;10.44;57.96;96708.38;5001450;28;20061;-56
2022/11/19 02:25:17;;;;;;;1.77;1.30;;;7.10;99.90;;;10.34;58.31;96699.84;5022846;28;20064;-54
2022/11/19 02:28:34;;;;;;;2.97;1.17;;;7.00;99.90;;;10.30;57.86;96709.22;5001387;28;20049;-57
2022/11/19 02:31:08;;;;;;;1.87;1.00;;;7.00;99.90;;;10.30;58.33;96703.03;4981782;28;20050;-56
2022/11/19 02:33:50;;;;;;;;;;;6.90;99.90;;;10.30;57.99;96705.72;4981802;28;20051;-57
2022/11/19 02:36:22;;;;;;;1.70;1.10;;;6.90;99.90;;;10.31;57.83;96710.03;4990182;28;20085;-56
2022/11/19 02:39:07;;;;;;;3.00;1.60;;;6.90;99.90;;;10.25;58.54;96714.22;5001995;28;20061;-57
2022/11/19 02:41:52;;;;;;;2.73;1.20;;;6.90;99.90;;;10.32;58.41;96720.50;5003236;28;20050;-56
2022/11/19 02:47:22;;;;;;;4.17;1.40;;;7.00;99.90;;;10.34;58.49;96718.47;5002273;28;20050;-57
2022/11/19 02:49:56;;;;;;;3.00;1.48;;;7.00;99.90;;;10.36;58.74;96721.78;5001767;28;20050;-55
2022/11/19 02:52:24;;;;;;;4.22;1.77;;;7.10;99.90;;;10.38;58.33;96717.09;5018370;28;20056;-56
2022/11/19 02:54:52;;;;;;;2.80;1.43;;;7.10;99.90;;;10.41;58.67;96718.56;5001166;28;20078;-56
2022/11/19 02:57:20;;;;;;;2.87;1.30;;;7.10;99.90;;;10.44;58.44;96723.53;5003018;28;20237;-56
2022/11/19 03:05:46;;;;;;;2.17;1.40;;;7.20;99.90;;;10.49;58.74;96718.50;5001375;28;20057;-55
2022/11/19 03:08:15;;;;;;;2.47;1.30;;;7.20;99.90;;;10.46;58.42;96724.16;5002620;28;20056;-57
2022/11/19 03:11:17;;;;;;;2.57;1.20;;;7.20;99.90;;;10.48;58.59;96722.16;5001602;28;20053;-54
2022/11/19 03:17:32;;;;;;;3.13;1.60;;;7.20;99.90;;;10.48;58.84;96722.16;5001611;28;20263;-57
2022/11/19 03:20:32;;;;;;;7.20;2.57;;;7.20;99.90;;;10.47;59.04;96725.84;4999883;28;20050;-54
2022/11/19 03:23:18;;;;;;;3.77;1.80;;;7.20;99.90;;;10.52;58.86;96719.97;5001976;28;20221;-56
2022/11/19 03:25:58;;;;;;;2.73;1.80;;;7.20;99.90;;;10.54;58.70;96716.09;5001141;28;20052;-57
2022/11/19 03:28:34;;;;;;;4.40;1.70;;;7.20;99.90;;;10.54;58.96;96724.06;4986106;28;20138;-55
2022/11/19 03:31:05;;;;;;;6.67;1.97;;;7.20;99.90;;;10.57;58.76;96729.03;5001258;28;20064;-54
2022/11/19 03:33:44;;;;;;;2.80;2.00;;;7.30;99.90;;;10.51;59.24;96732.44;5001263;28;20217;-57
2022/11/19 03:36:24;;;;;;;2.70;1.73;;;7.30;99.90;;;10.59;58.85;96735.00;5001251;28;20056;-56
2022/11/19 03:39:05;;;;;;;5.23;2.57;;;7.30;99.90;;;10.63;58.68;96732.81;5001634;28;20050;-54
2022/11/19 03:41:37;;;;;;;2.20;1.57;;;7.30;99.90;;;10.62;59.06;96734.66;5001658;28;20054;-57
2022/11/19 03:44:18;;;;;;;3.17;1.80;;;7.30;99.90;;;10.63;58.90;96733.63;5002012;28;20047;-58
2022/11/19 03:46:52;;;;;;;3.87;1.90;;;7.30;99.90;;;10.60;59.21;96726.03;5001262;28;20065;-55
2022/11/19 03:49:30;;;;;;;3.47;1.70;;;7.30;99.90;;;10.60;59.03;96738.50;5002423;28;20053;-52
2022/11/19 03:52:14;;;;;;;7.63;2.43;;;7.30;99.90;;;10.64;59.21;96740.63;5001455;28;20054;-55
2022/11/19 03:54:43;;;;;;;2.03;1.50;;;7.30;99.90;;;10.67;59.13;96744.75;4985148;28;20062;-56
2022/11/19 03:57:16;;;;;;;3.03;1.90;;;7.30;99.90;;;10.69;58.80;96745.38;5004305;28;20049;-56
2022/11/19 03:59:46;;;;;;;5.57;2.00;;;7.40;99.90;;;10.74;59.20;96755.47;5004829;28;20054;-56
2022/11/19 04:02:15;;;;;;;4.70;2.43;;;7.40;99.90;;;10.75;59.13;96744.63;5004941;28;20064;-57
2022/11/19 04:04:43;;;;;;;2.97;2.33;;;7.40;99.90;;;10.74;59.04;96744.81;4988497;28;20051;-58
2022/11/19 04:07:29;;;;;;;2.73;1.70;;;7.40;99.90;;;10.75;58.86;96749.97;5004931;28;20050;-56
2022/11/19 04:09:57;;;;;;;4.67;2.10;;;7.40;99.90;;;10.78;58.76;96749.59;5005949;28;20046;-58
2022/11/19 04:12:25;;;;;;;3.40;2.03;;;7.50;99.90;;;10.81;58.90;96754.53;5005955;28;20049;-56
2022/11/19 04:14:53;;;;;;;4.10;1.73;;;7.50;99.90;;;10.84;58.84;96756.03;5004329;28;20046;-57
2022/11/19 04:17:21;;;;;;;2.13;1.73;;;7.60;99.90;;;10.84;59.03;96754.19;5005067;28;20058;-57
2022/11/19 04:19:50;;;;;;;3.27;1.80;;;7.60;99.90;;;10.84;59.10;96756.03;5005804;28;20061;-53
2022/11/19 04:22:18;;;;;;;3.40;1.90;;;7.50;99.90;;;10.86;58.89;96759.34;5005599;28;20053;-56
2022/11/19 04:24:46;;;;;;;4.10;2.20;;;7.50;99.90;;;10.86;59.14;96750.50;5004105;28;20056;-53
2022/11/19 04:27:14;;;;;;;3.10;2.20;;;7.50;99.90;;;10.87;58.95;96755.66;5004522;28;20050;-57
2022/11/19 04:29:42;;;;;;;3.70;2.00;;;7.50;99.90;;;10.89;59.05;96760.78;5005528;28;20066;-56
2022/11/19 04:32:10;;;;;;;2.87;1.40;;;7.50;99.90;;;10.88;59.17;96749.31;5006630;28;20209;-57
2022/11/19 04:34:38;;;;;;;4.97;2.13;;;7.50;99.90;;;10.92;59.23;96761.25;5005683;28;20368;-57
2022/11/19 04:37:06;;;;;;;2.63;1.50;;;7.60;99.90;;;10.92;58.76;96758.59;5005178;28;20232;-56
2022/11/19 04:39:34;;;;;;;3.20;1.50;;;7.60;99.90;;;10.94;58.96;96758.41;5004468;28;20080;-53
2022/11/19 04:42:03;;;;;;;1.90;1.53;;;7.60;99.90;;;10.93;59.04;96754.91;5004093;28;20054;-58
2022/11/19 04:44:31;;;;;;;2.43;1.60;;;7.60;99.90;;;10.95;58.74;96755.56;5004924;28;20042;-57
2022/11/19 04:47:00;;;;;;;2.87;1.90;;;7.60;99.90;;;10.97;58.54;96758.03;5005221;28;20236;-55
2022/11/19 04:49:28;;;;;;;2.70;1.70;;;7.60;99.90;;;10.98;58.80;96759.69;5005840;28;20061;-57
2022/11/19 04:51:56;;;;;;;2.37;1.40;;;7.60;99.90;;;10.96;59.03;96759.88;5003957;28;20050;-56
2022/11/19 04:54:24;;;;;;;1.60;1.20;;;7.60;99.90;;;10.97;58.88;96764.19;5003259;28;20050;-55
2022/11/19 04:56:52;;;;;;;4.37;1.70;;;7.60;99.90;;;10.97;58.89;96758.88;5003964;28;20064;-56
2022/11/19 04:59:20;;;;;;;4.13;1.50;;;7.60;99.90;;;10.99;58.59;96758.66;5005128;28;20046;-57
2022/11/19 05:01:49;;;;;;;2.20;1.50;;;7.60;99.90;;;11.01;58.86;96760.16;5003996;28;20050;-55
2022/11/19 05:04:17;;;;;;;3.47;1.90;;;7.70;99.90;;;11.07;58.42;96765.72;5004455;28;20046;-54
2022/11/19 05:06:45;;;;;;;3.10;1.40;;;7.70;99.90;;;11.08;58.45;96762.88;5000839;28;20054;-57
2022/11/19 05:09:13;;;;;;;2.97;1.70;;;7.70;99.90;;;11.10;58.61;96768.03;5004534;28;20054;-55
2022/11/19 05:11:41;;;;;;;2.73;1.60;;;7.80;99.90;;;11.12;58.22;96766.00;5020020;28;20061;-57
2022/11/19 05:14:09;;;;;;;2.00;1.20;;;7.80;99.90;;;11.10;58.42;96763.53;5004385;28;20050;-55
2022/11/19 05:16:37;;;;;;;2.33;1.60;;;7.80;99.90;;;11.10;58.48;96768.84;5004331;28;20054;-56
2022/11/19 05:19:05;;;;;;;2.10;1.53;;;7.70;99.90;;;11.15;58.15;96760.31;5004546;28;20053;-57
2022/11/19 05:21:34;;;;;;;2.73;1.57;;;7.70;99.90;;;11.12;58.39;96758.84;5004721;28;20050;-56
2022/11/19 05:24:02;;;;;;;3.70;1.73;;;7.70;99.90;;;11.08;58.75;96764.72;5004896;28;20349;-56
2022/11/19 05:26:30;;;;;;;4.00;1.50;;;7.70;99.90;;;11.04;58.34;96758.94;5004527;28;20068;-56
2022/11/19 05:28:58;;;;;;;3.83;1.63;;;7.70;99.90;;;11.03;58.68;96767.94;5003468;28;20050;-57
2022/11/19 05:31:26;;;;;;;2.17;1.50;;;7.70;99.90;;;11.01;58.73;96767.28;5003853;28;20058;-55
2022/11/19 05:33:54;;;;;;;5.90;1.77;;;7.60;99.90;;;10.98;58.47;96770.34;5002992;28;20050;-57
2022/11/19 05:36:22;;;;;;;2.30;1.50;;;7.60;99.90;;;10.98;58.80;96770.34;4986898;28;20068;-57
2022/11/19 05:38:50;;;;;;;1.63;1.33;;;7.60;99.90;;;10.97;58.56;96766.00;5004203;28;20058;-56
2022/11/19 05:41:18;;;;;;;2.63;2.03;;;7.60;99.90;;;11.00;58.88;96771.00;5004679;28;20054;-57
2022/11/19 05:43:46;;;;;;;2.03;1.60;;;7.60;99.90;;;11.02;58.58;96777.78;5003893;28;20370;-57
2022/11/19 05:46:14;;;;;;;3.10;2.00;;;7.70;99.90;;;11.03;58.57;96771.44;5004473;28;20230;-56
2022/11/19 05:48:43;;;;;;;3.90;2.00;;;7.70;99.90;;;11.06;58.87;96770.25;5003243;28;20054;-57
2022/11/19 05:51:15;;;;;;;3.57;2.10;;;7.70;99.90;;;11.03;58.57;96768.78;5004212;28;20076;-57
2022/11/19 05:53:43;;;;;;;2.60;1.73;;;7.70;99.90;;;11.03;58.40;96771.44;5002950;28;20054;-56
2022/11/19 05:56:11;;;;;;;2.97;1.63;;;7.70;99.90;;;11.03;58.53;96765.28;5003963;28;20042;-57
2022/11/19 05:58:39;;;;;;;2.37;1.60;;;7.70;99.90;;;11.00;58.87;96768.31;5002893;28;20218;-57
2022/11/19 06:01:08;;;;;;;3.20;2.00;;;7.60;99.90;;;11.00;58.94;96768.31;5004036;28;20050;-57
2022/11/19 06:03:36;;;;;;;2.50;1.70;;;7.60;99.90;;;10.97;58.61;96766.88;5003668;28;20052;-55
2022/11/19 06:06:04;;;;;;;3.20;2.10;;;7.60;99.90;;;10.97;58.41;96764.19;5003633;28;20060;-58
2022/11/19 06:08:32;;;;;;;3.13;2.73;;;7.60;99.90;;;11.00;58.36;96771.81;5003769;28;20050;-57
2022/11/19 06:11:03;;;;;;;3.17;2.40;;;7.60;99.90;;;11.00;58.31;96774.47;5002503;28;20325;-56
2022/11/19 06:13:31;;;;;;;2.63;2.07;;;7.60;99.90;;;10.97;58.54;96777.53;5003380;28;20054;-56
2022/11/19 06:15:59;;;;;;;3.07;2.07;;;7.60;99.90;;;10.92;58.58;96779.91;5002449;28;20064;-56
2022/11/19 06:18:27;;;;;;;5.10;3.03;;;7.50;99.90;;;10.87;58.54;96779.63;5001804;28;20061;-58
2022/11/19 06:20:56;;;;;;;2.63;2.10;;;7.50;99.90;;;10.86;58.69;96783.31;5004042;28;20357;-56
2022/11/19 06:23:24;;;;;;;2.20;1.80;;;7.40;99.90;;;10.84;58.38;96780.81;5004032;28;20371;-58
2022/11/19 06:25:53;;;;;;;2.17;1.60;;;7.40;99.90;;;10.81;58.47;96780.34;5001420;28;20248;-56
2022/11/19 06:28:21;;;;;;;2.60;2.03;;;7.40;99.90;;;10.77;58.53;96789.72;5002505;28;20054;-58
2022/11/19 06:30:49;;;;;;;2.20;1.70;;;7.40;99.90;;;10.74;58.71;96784.75;5002595;28;20046;-58
2022/11/19 06:33:17;;;;;;;3.50;2.20;;;7.40;99.90;;;10.73;58.64;96794.56;5002260;28;20057;-58
2022/11/19 06:35:47;;;;;;;7.57;2.47;;;7.40;99.90;;;10.71;58.99;96791.28;5001751;28;20050;-55
2022/11/19 06:38:16;;;;;;;10.53;5.00;;;7.40;99.90;;;10.71;59.05;96793.94;5002156;28;20341;-57
2022/11/19 06:40:47;;;;;;;5.47;4.00;;;7.30;99.90;;;10.68;58.75;96794.28;5001976;28;20278;-57
2022/11/19 06:43:15;;;;;;;4.53;2.80;;;7.30;99.90;;;10.66;58.68;96798.97;5018423;28;20125;-56
2022/11/19 06:45:43;;;;;;;4.47;2.40;;;7.30;99.90;;;10.62;58.70;96806.53;5002632;28;20042;-56
2022/11/19 06:48:11;;;;;;;3.87;1.90;;;7.20;99.90;;;10.60;59.04;96805.03;5002965;28;20226;-57
2022/11/19 06:50:40;;;;;;;3.33;2.40;;;7.20;99.90;;;10.61;59.08;96804.03;5001510;28;20054;-55
2022/11/19 06:53:08;;;;;;;4.10;2.40;;;7.30;99.90;;;10.63;58.86;96807.34;5003242;28;20060;-57
2022/11/19 06:55:36;;;;;;;3.47;1.93;;;7.30;99.90;;;10.66;58.84;96822.09;5001144;28;20050;-55
2022/11/19 06:58:06;;;;;;;2.80;2.10;;;7.30;99.90;;;10.60;58.93;96811.19;5002464;28;20315;-57
2022/11/19 07:00:34;;;;;;;6.57;2.77;;;7.30;99.90;;;10.61;58.77;96818.16;5003189;28;20060;-57
2022/11/19 07:03:03;;;;;;;3.80;2.90;;;7.30;99.90;;;10.63;59.22;96815.31;5002681;28;20069;-58
2022/11/19 07:05:32;;;;;;;3.33;2.60;;;7.30;99.90;;;10.69;58.92;96813.78;5015529;28;20054;-60
2022/11/19 07:08:01;;;;;;;3.03;2.00;;;7.40;99.90;;;10.72;58.72;96819.56;5022494;28;20072;-59
2022/11/19 07:10:32;;;;;;;6.03;2.30;;;7.40;99.90;;;10.75;58.71;96819.19;5022582;28;20060;-60
2022/11/19 07:13:01;;;;;;;2.53;1.70;;;7.40;99.90;;;10.78;58.63;96823.34;5005188;28;20054;-60
2022/11/19 07:15:29;;;;;;;3.43;2.20;;;7.40;99.90;;;10.80;58.69;96821.31;5020984;28;20061;-57
2022/11/19 07:17:57;;;;;;;3.60;1.83;;;7.50;99.90;;;10.79;58.56;96824.97;5021100;28;20048;-57
2022/11/19 07:20:25;;;;;;;2.97;2.10;;;7.40;99.90;;;10.82;59.09;96828.09;5037264;28;20054;-58
2022/11/19 07:22:53;;;;;;;2.47;1.73;;;7.50;99.90;;;10.87;58.57;96832.06;5037409;28;20053;-57
2022/11/19 07:25:27;;;;;;;3.47;2.00;;;7.50;99.90;;;10.87;58.57;96826.72;5022191;28;20046;-58
2022/11/19 07:27:55;;;;;;;2.80;1.90;;;7.50;99.90;;;10.92;58.45;96835.81;5021024;28;20084;-58
2022/11/19 07:30:23;;;;;;;2.27;1.80;;;7.60;99.90;;;10.95;58.42;96827.47;5020670;28;20054;-59
2022/11/19 07:32:53;;;;;;;3.60;1.90;;;7.60;99.90;;;10.99;58.68;96830.56;5020882;28;20057;-59
2022/11/19 07:35:21;;;;;;;2.93;1.80;;;7.70;99.90;;;11.00;58.18;96837.56;5020603;28;20368;-59
2022/11/19 07:37:49;;;;;;;2.90;1.90;;;7.70;99.90;;;11.02;58.19;96835.53;5021833;28;20236;-59
2022/11/19 07:40:17;;;;;;;3.07;1.90;;;7.80;99.90;;;11.02;57.99;96846.19;5022299;28;20107;-58
2022/11/19 07:42:48;;;;;;;6.17;2.20;;;7.70;99.90;;;10.97;57.89;96843.25;5020892;28;20057;-57
2022/11/19 07:45:21;;;;;;;2.73;1.60;;;7.70;99.90;;;10.92;58.18;96849.13;5020593;28;20042;-55
2022/11/19 07:47:49;;;;;;;1.60;1.30;;;7.60;99.90;;;10.91;57.89;96846.66;5021932;28;20375;-61
2022/11/19 07:50:17;;;;;;;2.77;1.80;;;7.60;99.90;;;10.89;58.07;96846.81;5020764;28;20053;-59
2022/11/19 07:52:45;;;;;;;2.50;1.50;;;7.60;99.90;;;10.91;58.42;96850.13;5022198;28;20371;-59
2022/11/19 07:55:14;;;;;;;3.20;1.53;;;7.60;99.90;;;10.91;58.23;96857.31;5020665;28;20073;-58
2022/11/19 07:57:42;;;;;;;2.30;1.47;;;7.60;99.90;;;10.89;58.20;96848.66;5021531;28;20052;-58
2022/11/19 08:00:11;;;;;;;1.87;1.50;;;7.60;99.90;;;10.89;58.32;96851.34;5021727;28;20370;-57
2022/11/19 08:02:39;;;;;;;1.93;1.60;;;7.60;99.90;;;10.88;57.75;96850.50;5021681;28;20038;-57
2022/11/19 08:05:08;;;;;;;2.27;1.37;;;7.60;99.90;;;10.83;58.16;96847.56;5019995;28;20053;-53
2022/11/19 08:07:37;;;;;;;3.20;1.97;;;7.60;99.90;;;10.79;58.12;96848.94;5033504;28;20054;-57
2022/11/19 08:10:06;;;;;;;1.83;1.37;;;7.50;99.90;;;10.79;57.99;96843.59;5020670;28;20046;-57
2022/11/19 08:12:34;;;;;;;2.80;2.00;;;7.50;99.90;;;10.80;58.13;96853.25;5021882;28;20054;-59
2022/11/19 08:15:03;;;;;;;2.07;1.47;;;7.50;99.90;;;10.79;58.07;96849.75;5020145;28;20060;-58
2022/11/19 08:18:15;;;;;;;4.20;1.90;;;7.50;99.90;;;10.84;58.19;96859.88;5021591;28;20054;-58
2022/11/19 08:20:23;;;;;;;2.60;1.70;;;7.60;99.90;;;10.87;58.28;96858.69;5021246;28;20065;-56
2022/11/19 08:22:51;;;;;;;3.93;2.40;;;7.60;99.90;;;10.91;58.81;96865.28;5021686;28;20108;-58
2022/11/19 08:25:19;;;;;;;10.70;3.00;;;7.60;99.90;;;11.00;58.58;96873.00;5021308;28;20046;-59
2022/11/19 08:27:47;;;;;;;3.33;2.03;;;7.80;99.90;;;11.11;58.31;96877.06;5021540;28;20056;-58
2022/11/19 08:30:15;;;;;;;4.10;2.17;;;7.80;99.90;;;11.13;58.68;96875.06;5020502;28;20050;-58
2022/11/19 08:32:43;;;;;;;7.07;2.80;;;7.80;99.90;;;11.14;58.20;96873.22;5021544;28;20050;-56
2022/11/19 08:35:11;;;;;;;5.63;2.50;;;7.80;99.90;;;10.90;59.08;96874.31;5021410;28;20054;-58
2022/11/19 08:37:39;;;;;;;4.20;2.20;;;7.80;99.90;;;11.02;59.04;96872.84;5020330;28;20048;-57
2022/11/19 08:40:08;;;;;;;3.23;2.40;;;7.80;99.90;;;11.10;58.83;96874.59;5021511;28;20045;-57
2022/11/19 08:45:25;;;;;;;26.50;5.30;;;8.00;99.90;;;11.30;58.75;96873.03;5023507;28;20348;-58
2022/11/19 08:47:54;;;;;;;15.37;5.00;;;8.10;99.90;;;11.31;58.30;96877.34;5024338;28;20050;-59
2022/11/19 08:50:24;;;;;;;4.40;2.60;;;8.10;99.90;;;11.41;58.31;96885.06;5025363;28;20060;-58
2022/11/19 08:53:00;;;;;;;5.43;2.43;;;8.20;99.90;;;11.31;58.72;96885.34;5024638;28;20050;-59
2022/11/19 08:55:29;;;;;;;4.80;3.20;;;8.20;99.90;;;11.34;58.71;96887.63;5024685;28;20064;-59
2022/11/19 08:58:02;;;;;;;3.90;2.20;;;8.30;99.90;;;11.50;58.36;96899.13;5023671;28;20052;-59
2022/11/19 09:00:34;;;;;;;3.35;2.45;;;8.40;99.90;;;11.64;58.02;96895.59;5040338;28;20054;-58
2022/11/19 09:03:02;;;;;;;21.27;5.70;;;8.40;99.90;;;11.66;57.99;96898.91;5023688;28;20068;-60
2022/11/19 09:05:30;;;;;;;6.40;2.77;;;8.50;99.90;;;11.59;57.91;96892.66;5023953;28;20046;-60
2022/11/19 09:07:58;;;;;;;4.87;2.80;;;8.40;99.90;;;11.67;58.09;96899.72;5039819;28;20057;-59
2022/11/19 09:10:27;;;;;;;5.27;2.73;;;8.60;99.90;;;11.59;58.19;96897.97;5023518;28;20348;-59
2022/11/19 09:12:55;;;;;;;11.13;3.20;;;8.50;99.90;;;11.71;57.50;96904.50;5024453;28;20050;-58
2022/11/19 09:15:23;;;;;;;7.37;2.67;;;8.60;99.90;;;11.67;58.30;96895.25;5006499;28;20057;-59
2022/11/19 09:17:51;;;;;;;5.97;3.13;;;8.50;99.90;;;11.47;58.26;96897.63;5023688;28;20049;-59
2022/11/19 09:20:19;;;;;;;4.07;2.17;;;8.40;99.90;;;11.29;58.60;96906.00;5024152;28;20045;-59
2022/11/19 09:22:47;;;;;;;4.57;3.00;;;8.30;99.90;;;11.26;58.30;96910.88;5024357;28;20056;-59
2022/11/19 09:25:16;;;;;;;8.57;3.30;;;8.20;99.90;;;11.48;57.99;96915.28;5023667;28;20050;-60
2022/11/19 09:27:44;;;;;;;4.30;2.43;;;8.40;99.90;;;11.56;58.39;96919.69;5023337;28;20062;-59
2022/11/19 09:30:13;;;;;;;5.57;3.03;;;8.40;99.90;;;11.51;58.20;96914.09;5039435;28;20067;-59
2022/11/19 09:32:42;;;;;;;4.67;2.43;;;8.40;99.90;;;11.43;58.34;96917.66;5024301;28;20056;-58
2022/11/19 09:35:12;;;;;;;5.17;2.47;;;8.40;99.90;;;11.58;57.81;96923.00;5024129;28;20263;-59
2022/11/19 09:37:40;;;;;;;7.53;2.90;;;8.40;99.90;;;11.57;58.24;96924.84;5022562;28;20050;-59
2022/11/19 09:40:19;;;;;;;5.10;2.43;;;8.40;99.90;;;11.59;57.63;96921.97;5024171;28;20050;-59
2022/11/19 09:43:16;;;;;;;3.83;2.27;;;8.50;99.90;;;11.31;58.21;96919.97;5010394;28;20054;-59
2022/11/19 09:45:53;;;;;;;3.73;2.30;;;8.40;99.90;;;11.42;57.86;96924.03;5016070;28;20045;-60
2022/11/19 09:48:38;;;;;;;3.83;1.80;;;8.40;99.90;;;11.32;57.48;96931.44;5017421;28;20252;-59
2022/11/19 09:51:15;;;;;;;4.10;2.33;;;8.30;99.90;;;11.35;57.43;96925.75;5018784;28;20056;-59
2022/11/19 09:54:03;;;;;;;3.17;1.83;;;8.30;99.90;;;11.58;57.07;96929.16;5016758;28;20099;-59
2022/11/19 09:56:41;;;;;;;6.47;2.07;;;8.40;99.90;;;11.67;57.20;96929.06;5018519;28;20057;-59
2022/11/19 09:59:39;;;;;;;3.37;1.70;;;8.50;99.90;;;11.33;56.88;96925.13;5016174;28;20340;-59
2022/11/19 10:02:20;;;;;;;3.37;2.13;;;8.40;99.90;;;11.29;56.20;96929.16;5018789;28;20064;-56
2022/11/19 10:04:50;;;;;;;3.67;2.23;;;8.30;99.90;;;11.40;56.76;96926.06;5017766;28;20063;-58
2022/11/19 10:07:34;;;;;;;10.03;2.50;;;8.40;99.90;;;11.32;56.44;96931.44;5017660;28;20069;-59
2022/11/19 10:10:40;;;;;;;4.35;2.17;;;8.40;99.90;;;11.35;56.09;96925.75;5018698;28;20041;-58
2022/11/19 10:13:56;;;;;;;3.90;1.93;;;8.40;99.90;;;11.31;56.41;96924.47;5018201;28;20052;-59
2022/11/19 10:17:00;;;;;;;4.83;2.10;;;8.40;99.90;;;11.18;56.79;96925.91;5005490;28;20360;-59
2022/11/19 10:19:53;;;;;;;3.57;1.73;;;8.30;99.90;;;11.33;56.32;96927.78;5016559;28;20253;-58
2022/11/19 10:22:35;;;;;;;3.20;1.87;;;8.40;99.90;;;10.97;57.82;96921.34;5018509;28;20248;-58
2022/11/19 10:25:20;;;;;;;4.33;2.40;;;8.20;99.90;;;10.93;56.58;96922.69;5016590;28;20236;-59
2022/11/19 10:28:11;;;;;;;4.90;2.03;;;8.20;99.90;;;11.23;57.13;96920.88;5015912;28;20054;-57
2022/11/19 10:30:54;;;;;;;3.93;2.03;;;8.20;99.90;;;11.43;56.23;96912.34;5019220;28;20055;-58
2022/11/19 10:33:53;;;;;;;6.47;3.00;;;8.30;99.90;;;11.57;56.51;96921.34;5018878;28;20050;-59
2022/11/19 10:36:51;;;;;;;4.90;2.57;;;8.50;99.90;;;11.71;56.31;96917.00;5016317;28;20054;-58
2022/11/19 10:39:32;;;;;;;3.07;2.03;;;8.60;99.90;;;11.48;55.82;96917.97;5017979;28;20050;-54
2022/11/19 10:42:38;;;;;;;3.93;2.07;;;8.50;99.90;;;11.54;55.53;96913.72;5015976;28;20358;-53
2022/11/19 10:45:15;;;;;;;2.90;1.93;;;8.50;99.90;;;11.68;55.59;96920.06;5016090;28;20046;-56
2022/11/19 10:48:05;;;;;;;3.23;1.70;;;8.50;99.90;;;11.57;55.69;96910.69;5017105;28;20060;-56
2022/11/19 10:50:37;;;;;;;5.20;2.33;;;8.50;99.90;;;11.49;55.91;96914.25;5018282;28;20057;-57
2022/11/19 10:53:35;;;;;;;3.10;2.30;;;8.50;99.90;;;11.59;55.86;96914.81;5016484;28;20041;-57
2022/11/19 10:56:41;;;;;;;3.10;1.80;;;8.50;99.90;;;11.56;55.79;96911.69;5016601;28;20058;-57
2022/11/19 10:59:23;;;;;;;4.10;2.40;;;8.50;99.90;;;11.63;56.11;96916.09;5018769;28;20063;-57
2022/11/19 11:02:17;;;;;;;4.63;2.17;;;8.40;99.90;;;11.66;55.98;96920.22;5006339;28;20263;-55
2022/11/19 11:05:14;;;;;;;3.63;2.07;;;8.50;99.90;;;11.48;56.37;96903.81;5017881;28;20050;-57
2022/11/19 11:07:57;;;;;;;2.53;1.50;;;8.40;99.90;;;11.36;56.72;96903.41;5016851;28;20268;-57
2022/11/19 11:10:57;;;;;;;4.88;2.13;;;8.30;99.90;;;11.42;56.49;96906.19;5018704;28;20056;-57